Time;durP1;ratioP1;P1;durP2;ratioP2;P2;SDS_P1;SDS_P2;PMS_P1;PMS_P2;Temp;Humidity;BMP_temperature;BMP_pressure;BME280_temperature;BME280_humidity;BME280_pressure;Samples;Min_cycle;Max_cycle;Signal;HPM_P1;HPM_P2
2021/08/17 00:00:11;;;;;;;15.45;9.35;;;615.30;2176.00;;;;;;5034690;28;20079;-81
2021/08/17 00:02:37;;;;;;;17.60;11.50;;;640.00;2201.60;;;;;;5034670;28;20028;-82
2021/08/17 00:05:04;;;;;;;15.25;11.40;;;615.10;2176.00;;;;;;5034685;28;20022;-81
2021/08/17 00:07:30;;;;;;;18.13;9.48;;;615.00;2176.00;;;;;;5034471;28;20493;-81
2021/08/17 00:09:56;;;;;;;15.18;9.32;;;615.00;2176.00;;;;;;5034636;28;20017;-81
2021/08/17 00:12:22;;;;;;;15.80;9.60;;;614.90;2201.60;;;;;;5034415;28;20031;-80
2021/08/17 00:14:49;;;;;;;15.63;9.20;;;614.90;2176.00;;;;;;5034102;28;20067;-80
2021/08/17 00:17:15;;;;;;;14.90;8.95;;;615.00;2150.40;;;;;;5035658;28;20021;-80
2021/08/17 00:19:43;;;;;;;17.65;9.00;;;615.10;2176.00;;;;;;5034405;28;20340;-80
2021/08/17 00:22:10;;;;;;;12.40;8.52;;;615.10;2201.60;;;;;;5034424;28;20022;-81
2021/08/17 00:24:36;;;;;;;13.63;9.05;;;615.10;2201.60;;;;;;5034371;28;20025;-81
2021/08/17 00:27:03;;;;;;;14.77;8.00;;;615.00;2201.60;;;;;;5034448;28;20029;-81
2021/08/17 00:29:29;;;;;;;15.43;8.95;;;614.80;2201.60;;;;;;5034205;28;20022;-81
2021/08/17 00:31:55;;;;;;;13.63;8.90;;;589.70;2227.20;;;;;;5035199;28;20091;-79
2021/08/17 00:34:21;;;;;;;18.02;8.65;;;614.70;2227.20;;;;;;5033835;28;20452;-80
2021/08/17 00:36:51;;;;;;;15.75;9.35;;;614.70;2227.20;;;;;;5033833;28;20473;-81
2021/08/17 00:39:17;;;;;;;16.75;9.40;;;614.80;2227.20;;;;;;5034118;28;20017;-80
2021/08/17 00:41:45;;;;;;;12.05;8.65;;;614.50;2252.80;;;;;;5033924;28;20448;-81
2021/08/17 00:44:25;;;;;;;17.42;9.73;;;614.70;2227.20;;;;;;5034027;28;20025;-81
2021/08/17 00:46:55;;;;;;;15.52;8.88;;;614.50;2304.00;;;;;;5033997;28;20021;-81
2021/08/17 00:49:21;;;;;;;15.93;10.20;;;589.70;2252.80;;;;;;5033680;28;20041;-82
2021/08/17 00:51:52;;;;;;;17.25;10.77;;;614.40;2252.80;;;;;;5033598;28;20471;-81
2021/08/17 00:54:19;;;;;;;18.30;11.05;;;614.40;2278.40;;;;;;5033737;28;20071;-80
2021/08/17 00:56:46;;;;;;;16.70;10.43;;;589.70;2278.40;;;;;;5040914;28;20120;-81
2021/08/17 00:59:12;;;;;;;13.48;8.80;;;589.70;2304.00;;;;;;5033324;28;20022;-81
2021/08/17 01:01:39;;;;;;;15.48;8.77;;;614.50;2252.80;;;;;;5036249;28;20021;-80
2021/08/17 01:04:06;;;;;;;21.45;9.90;;;614.50;2252.80;;;;;;5045783;28;20052;-80
2021/08/17 01:06:32;;;;;;;13.20;8.90;;;614.50;2252.80;;;;;;5046645;28;20017;-80
2021/08/17 01:08:58;;;;;;;17.90;9.75;;;614.50;2252.80;;;;;;5039655;28;20070;-81
2021/08/17 01:11:24;;;;;;;16.33;8.55;;;614.50;2252.80;;;;;;5032967;28;20033;-81
2021/08/17 01:13:53;;;;;;;16.65;8.75;;;614.50;2252.80;;;;;;5033330;28;20021;-81
2021/08/17 01:16:20;;;;;;;13.60;8.63;;;614.50;2252.80;;;;;;5033450;28;20033;-81
2021/08/17 01:18:46;;;;;;;18.05;9.48;;;614.40;2278.40;;;;;;5033341;28;20370;-81
2021/08/17 01:21:13;;;;;;;13.30;9.02;;;614.50;2278.40;;;;;;5033485;28;20036;-82
2021/08/17 01:23:39;;;;;;;17.92;9.15;;;589.70;2278.40;;;;;;5033325;28;20060;-81
2021/08/17 01:26:05;;;;;;;16.38;9.07;;;589.60;2278.40;;;;;;5032922;28;20057;-81
2021/08/17 01:28:31;;;;;;;15.90;9.00;;;614.60;2278.40;;;;;;5033393;28;20203;-81
2021/08/17 01:31:02;;;;;;;16.17;8.65;;;589.70;2304.00;;;;;;5032939;28;20424;-81
2021/08/17 01:33:28;;;;;;;15.07;8.77;;;614.40;2304.00;;;;;;5032953;28;20083;-80
2021/08/17 01:35:54;;;;;;;16.17;9.75;;;589.70;2304.00;;;;;;5033166;28;20029;-81
2021/08/17 01:38:20;;;;;;;16.02;10.68;;;589.30;2329.60;;;;;;5032910;28;20025;-80
2021/08/17 01:40:45;;;;;;;20.60;13.80;;;589.40;2355.20;;;;;;5033117;28;20024;-80
2021/08/17 01:43:11;;;;;;;23.40;14.68;;;589.50;2329.60;;;;;;5034376;28;20043;-81
2021/08/17 01:45:37;;;;;;;20.85;13.55;;;589.30;2380.80;;;;;;5032341;28;20076;-81
2021/08/17 01:48:05;;;;;;;15.60;10.85;;;589.20;2380.80;;;;;;5032658;28;20049;-80
2021/08/17 01:50:31;;;;;;;15.00;9.95;;;;;;;;;;5033923;28;20406;-81
2021/08/17 01:52:57;;;;;;;11.57;8.15;;;588.90;2406.40;;;;;;5032505;28;20018;-81
2021/08/17 01:55:23;;;;;;;12.02;8.88;;;588.90;2406.40;;;;;;5032884;28;20112;-81
2021/08/17 01:57:49;;;;;;;15.48;9.38;;;589.10;2380.80;;;;;;5032797;28;20056;-80
2021/08/17 02:00:15;;;;;;;12.13;8.55;;;589.00;2406.40;;;;;;5032560;28;20032;-81
2021/08/17 02:02:41;;;;;;;13.57;9.65;;;589.20;2380.80;;;;;;5032456;28;20115;-80
2021/08/17 02:05:08;;;;;;;14.30;8.70;;;589.00;2432.00;;;;;;5032691;28;20034;-79
2021/08/17 02:07:34;;;;;;;13.82;9.20;;;589.00;2406.40;;;;;;5032734;28;20498;-81
2021/08/17 02:10:00;;;;;;;14.35;9.18;;;589.10;2432.00;;;;;;5032784;28;20105;-81
2021/08/17 02:12:26;;;;;;;12.38;8.48;;;589.40;2432.00;;;;;;5032675;28;20017;-80
2021/08/17 02:14:52;;;;;;;16.33;8.85;;;589.10;2432.00;;;;;;5032528;28;20367;-80
2021/08/17 02:17:18;;;;;;;11.60;8.98;;;589.10;2432.00;;;;;;5035212;28;20041;-81
2021/08/17 02:19:43;;;;;;;12.35;8.23;;;589.10;2432.00;;;;;;5036425;28;20068;-80
2021/08/17 02:22:09;;;;;;;12.95;9.15;;;589.20;2380.80;;;;;;5036773;28;20017;-82
2021/08/17 02:24:37;;;;;;;15.27;9.35;;;589.20;2406.40;;;;;;5037431;28;20033;-81
2021/08/17 02:27:03;;;;;;;13.30;8.80;;;589.20;2432.00;;;;;;5036732;28;20033;-81
2021/08/17 02:29:29;;;;;;;9.77;8.30;;;589.10;2432.00;;;;;;5036569;28;20513;-80
2021/08/17 02:31:55;;;;;;;12.95;8.70;;;589.10;2406.40;;;;;;5036346;28;20025;-81
2021/08/17 02:34:21;;;;;;;15.23;8.77;;;589.20;2432.00;;;;;;5036030;28;20022;-82
2021/08/17 02:36:46;;;;;;;15.82;9.73;;;589.20;2432.00;;;;;;5036408;28;20119;-81
2021/08/17 02:39:12;;;;;;;13.80;8.82;;;589.20;2432.00;;;;;;5036329;28;20160;-81
2021/08/17 02:41:38;;;;;;;12.18;8.95;;;589.30;2432.00;;;;;;5037207;28;20021;-81
2021/08/17 02:44:04;;;;;;;16.20;10.02;;;589.20;2432.00;;;;;;5037596;28;20021;-81
2021/08/17 02:46:30;;;;;;;17.77;10.88;;;589.10;2432.00;;;;;;5036100;28;20455;-81
2021/08/17 02:48:56;;;;;;;13.63;9.25;;;588.90;2432.00;;;;;;5035812;28;20072;-81
2021/08/17 02:51:21;;;;;;;13.25;10.05;;;589.00;2432.00;;;;;;5036299;28;20017;-82
2021/08/17 02:53:47;;;;;;;12.68;9.13;;;564.10;2432.00;;;;;;5035909;28;20416;-81
2021/08/17 02:56:13;;;;;;;17.27;8.90;;;563.80;2432.00;;;;;;5035691;28;20032;-82
2021/08/17 02:58:39;;;;;;;13.23;9.23;;;;;;;;;;5036056;28;20029;-81
2021/08/17 03:01:05;;;;;;;12.80;9.75;;;;;;;;;;5037459;28;20029;-81
2021/08/17 03:03:31;;;;;;;13.70;9.43;;;;;;;;;;5035185;28;20020;-81
2021/08/17 03:05:57;;;;;;;15.52;9.02;;;;;;;;;;5035890;28;20478;-81
2021/08/17 03:08:23;;;;;;;15.27;9.45;;;;;;;;;;5037069;28;20022;-82
2021/08/17 03:10:49;;;;;;;13.80;9.45;;;;;;;;;;5035148;28;20060;-80
2021/08/17 03:13:15;;;;;;;14.13;8.57;;;;;;;;;;5035621;28;20013;-80
2021/08/17 03:15:42;;;;;;;15.50;9.80;;;;;;;;;;5035365;28;20116;-78
2021/08/17 03:18:09;;;;;;;15.10;9.52;;;;;;;;;;5035625;28;20049;-81
2021/08/17 03:20:35;;;;;;;13.52;8.95;;;;;;;;;;5036373;28;20025;-80
2021/08/17 03:23:02;;;;;;;15.55;9.18;;;563.80;2432.00;;;;;;5036505;28;20340;-82
2021/08/17 03:25:29;;;;;;;14.43;9.35;;;563.70;2432.00;;;;;;5035439;28;20411;-82
2021/08/17 03:27:56;;;;;;;16.50;10.02;;;;;;;;;;5035906;28;20029;-81
2021/08/17 03:30:23;;;;;;;19.02;9.80;;;;;;;;;;5035193;28;20017;-82
2021/08/17 03:32:49;;;;;;;15.05;9.82;;;;;;;;;;5035344;28;20044;-80
2021/08/17 03:35:16;;;;;;;13.57;9.23;;;;;;;;;;5035226;28;20079;-81
2021/08/17 03:37:42;;;;;;;13.75;9.68;;;;;;;;;;5034962;28;20116;-81
2021/08/17 03:40:09;;;;;;;15.38;10.27;;;;;;;;;;5035147;28;20458;-82
2021/08/17 03:42:37;;;;;;;15.70;9.32;;;;;;;;;;5036495;28;20029;-81
2021/08/17 03:45:03;;;;;;;15.07;9.55;;;;;;;;;;5034778;28;20060;-82
2021/08/17 03:47:30;;;;;;;11.45;9.45;;;;;;;;;;5034742;28;20045;-81
2021/08/17 03:49:56;;;;;;;12.88;9.30;;;;;;;;;;5035272;28;20021;-82
2021/08/17 03:52:22;;;;;;;14.73;9.38;;;;;;;;;;5034905;28;20099;-81
2021/08/17 03:54:48;;;;;;;17.23;9.85;;;;;;;;;;5034862;28;20025;-81
2021/08/17 03:57:14;;;;;;;15.30;9.55;;;563.70;2432.00;;;;;;5035061;28;20029;-81
2021/08/17 03:59:39;;;;;;;14.00;9.63;;;563.70;2432.00;;;;;;5034555;28;20025;-80
2021/08/17 04:02:05;;;;;;;14.05;9.63;;;563.60;2432.00;;;;;;5034804;28;20026;-80
2021/08/17 04:04:31;;;;;;;15.45;10.35;;;563.40;2432.00;;;;;;5034871;28;20026;-80
2021/08/17 04:06:57;;;;;;;16.75;11.35;;;563.20;2432.00;;;;;;5035674;28;20391;-81
2021/08/17 04:09:22;;;;;;;17.45;11.63;;;538.20;2406.40;;;;;;5034691;28;20111;-81
2021/08/17 04:11:49;;;;;;;19.33;12.93;;;538.00;2406.40;;;;;;5034513;28;20021;-81
2021/08/17 04:14:15;;;;;;;20.40;12.10;;;538.00;2406.40;;;;;;5034796;28;20028;-81
2021/08/17 04:16:41;;;;;;;21.55;12.32;;;538.30;2406.40;;;;;;5034714;28;20041;-82
2021/08/17 04:19:07;;;;;;;16.10;11.60;;;538.40;2406.40;;;;;;5034425;28;20021;-81
2021/08/17 04:21:32;;;;;;;16.58;11.45;;;538.00;2406.40;;;;;;5034751;28;20136;-81
2021/08/17 04:23:59;;;;;;;15.93;11.00;;;538.10;2406.40;;;;;;5034634;28;20091;-81
2021/08/17 04:26:25;;;;;;;15.82;10.75;;;538.00;2406.40;;;;;;5034290;28;20039;-82
2021/08/17 04:28:51;;;;;;;20.80;11.10;;;538.00;2406.40;;;;;;5034407;28;20025;-83
2021/08/17 04:31:17;;;;;;;17.15;10.85;;;538.10;2406.40;;;;;;5034282;28;20024;-83
2021/08/17 04:33:43;;;;;;;16.33;10.15;;;538.00;2406.40;;;;;;5034339;28;20371;-82
2021/08/17 04:36:09;;;;;;;19.10;11.23;;;538.10;2406.40;;;;;;5034127;28;20036;-82
2021/08/17 04:38:34;;;;;;;20.05;11.00;;;538.00;2406.40;;;;;;5034227;28;20040;-81
2021/08/17 04:41:00;;;;;;;19.95;10.98;;;537.90;2406.40;;;;;;5033877;28;20025;-81
2021/08/17 04:43:26;;;;;;;23.48;13.40;;;538.20;2406.40;;;;;;5034092;28;20026;-81
2021/08/17 04:45:53;;;;;;;16.73;12.32;;;538.00;2406.40;;;;;;5035167;28;20465;-82
2021/08/17 04:48:19;;;;;;;17.30;11.82;;;538.00;2406.40;;;;;;5033660;28;20045;-81
2021/08/17 04:50:45;;;;;;;16.67;11.68;;;538.10;2406.40;;;;;;5033802;28;20021;-82
2021/08/17 04:53:11;;;;;;;25.35;12.25;;;538.10;2406.40;;;;;;5033747;28;20076;-81
2021/08/17 04:55:37;;;;;;;18.83;11.10;;;538.00;2406.40;;;;;;5034544;28;20025;-81
2021/08/17 04:58:04;;;;;;;22.35;12.07;;;538.10;2406.40;;;;;;5033764;28;20035;-81
2021/08/17 05:00:31;;;;;;;17.33;11.40;;;538.10;2406.40;;;;;;5034588;28;20505;-81
2021/08/17 05:02:57;;;;;;;16.75;11.07;;;538.10;2406.40;;;;;;5033329;28;20368;-82
2021/08/17 05:05:23;;;;;;;20.55;13.05;;;538.20;2406.40;;;;;;5034807;28;20043;-81
2021/08/17 05:07:51;;;;;;;23.25;11.82;;;538.40;2406.40;;;;;;5033588;28;20055;-81
2021/08/17 05:10:20;;;;;;;18.30;11.75;;;538.40;2406.40;;;;;;5033686;28;20053;-82
2021/08/17 05:12:47;;;;;;;23.40;13.88;;;538.40;2406.40;;;;;;5034844;28;20022;-82
2021/08/17 05:15:13;;;;;;;22.02;15.10;;;538.10;2406.40;;;;;;5033225;28;20490;-82
2021/08/17 05:17:39;;;;;;;23.15;12.40;;;538.40;2406.40;;;;;;5033536;28;20455;-81
2021/08/17 05:20:07;;;;;;;18.60;12.07;;;538.40;2406.40;;;;;;5033693;28;20040;-82
2021/08/17 05:22:33;;;;;;;16.20;11.38;;;538.40;2406.40;;;;;;5033433;28;20060;-82
2021/08/17 05:24:59;;;;;;;17.77;11.48;;;563.20;2432.00;;;;;;5033569;28;20033;-82
2021/08/17 05:27:25;;;;;;;15.73;11.80;;;563.20;2432.00;;;;;;5035273;28;20037;-80
2021/08/17 05:29:52;;;;;;;20.50;12.40;;;538.40;2406.40;;;;;;5038657;28;20025;-81
2021/08/17 05:32:20;;;;;;;18.50;10.65;;;538.30;2406.40;;;;;;5047359;28;20079;-81
2021/08/17 05:34:46;;;;;;;16.20;12.18;;;538.30;2406.40;;;;;;5048085;28;20052;-81
2021/08/17 05:37:14;;;;;;;16.42;12.18;;;538.30;2406.40;;;;;;5039078;28;20075;-81
2021/08/17 05:39:41;;;;;;;17.40;12.07;;;538.40;2406.40;;;;;;5034442;28;20021;-80
2021/08/17 05:42:11;;;;;;;15.82;11.27;;;538.50;2406.40;;;;;;5034149;28;20017;-79
2021/08/17 05:44:41;;;;;;;20.55;11.23;;;538.50;2406.40;;;;;;5034248;28;20455;-81
2021/08/17 05:47:08;;;;;;;18.70;11.70;;;563.20;2432.00;;;;;;5033709;28;20032;-82
2021/08/17 05:49:36;;;;;;;22.38;11.70;;;563.50;2432.00;;;;;;5016757;28;20022;-81
2021/08/17 05:52:04;;;;;;;16.77;11.15;;;538.20;2406.40;;;;;;5016238;28;20045;-81
2021/08/17 05:54:30;;;;;;;20.05;12.98;;;563.60;2432.00;;;;;;5016891;28;20107;-81
2021/08/17 05:56:58;;;;;;;21.85;12.07;;;563.90;2432.00;;;;;;5016505;28;20076;-80
2021/08/17 05:59:27;;;;;;;23.40;12.90;;;564.10;2432.00;;;;;;5016405;28;20028;-81
2021/08/17 06:01:58;;;;;;;18.13;11.93;;;588.90;2432.00;;;;;;5016375;28;20120;-81
2021/08/17 06:04:24;;;;;;;23.60;12.30;;;589.00;2432.00;;;;;;5016061;28;20075;-81
2021/08/17 06:06:49;;;;;;;16.58;11.55;;;589.20;2432.00;;;;;;5016267;28;20120;-81
2021/08/17 06:09:16;;;;;;;16.55;12.07;;;589.20;2432.00;;;;;;5033896;28;20049;-81
2021/08/17 06:11:43;;;;;;;18.70;11.63;;;589.30;2432.00;;;;;;5016039;28;20026;-81
2021/08/17 06:14:09;;;;;;;22.95;11.20;;;589.40;2432.00;;;;;;5034177;28;20025;-81
2021/08/17 06:16:34;;;;;;;25.30;12.70;;;589.50;2432.00;;;;;;5016009;28;20455;-81
2021/08/17 06:19:01;;;;;;;24.17;12.98;;;614.50;2432.00;;;;;;5015886;28;20071;-81
2021/08/17 06:21:27;;;;;;;23.23;12.55;;;614.50;2432.00;;;;;;5015942;28;20021;-81
2021/08/17 06:23:53;;;;;;;22.65;13.77;;;614.50;2432.00;;;;;;5015934;28;20180;-81
2021/08/17 06:26:19;;;;;;;23.60;12.40;;;614.50;2432.00;;;;;;5015811;28;20085;-81
2021/08/17 06:28:45;;;;;;;22.20;13.48;;;614.60;2432.00;;;;;;5016017;28;20107;-81
2021/08/17 06:31:13;;;;;;;21.00;13.50;;;614.60;2432.00;;;;;;5015961;28;20052;-82
2021/08/17 06:33:39;;;;;;;23.85;13.43;;;614.70;2432.00;;;;;;5015944;28;20056;-81
2021/08/17 06:36:05;;;;;;;26.60;12.93;;;614.80;2432.00;;;;;;5016027;28;20038;-83
2021/08/17 06:38:31;;;;;;;23.13;13.45;;;614.80;2432.00;;;;;;5015970;28;20048;-81
2021/08/17 06:40:57;;;;;;;22.48;13.40;;;614.80;2432.00;;;;;;5015386;28;20022;-80
2021/08/17 06:43:23;;;;;;;22.25;13.45;;;614.90;2432.00;;;;;;5015842;28;20025;-82
2021/08/17 06:45:49;;;;;;;24.95;14.65;;;614.90;2432.00;;;;;;5015269;28;20025;-82
2021/08/17 06:48:15;;;;;;;26.13;15.18;;;615.00;2432.00;;;;;;5023492;28;20403;-82
2021/08/17 06:50:41;;;;;;;22.55;14.25;;;615.10;2432.00;;;;;;5032471;28;20031;-81
2021/08/17 06:53:07;;;;;;;22.10;14.95;;;615.30;2432.00;;;;;;5032066;28;20021;-82
2021/08/17 06:55:33;;;;;;;30.67;14.40;;;;;;;;;;5033611;28;20505;-83
2021/08/17 06:57:59;;;;;;;30.02;15.40;;;640.40;2432.00;;;;;;5032551;28;20021;-82
2021/08/17 07:00:25;;;;;;;25.92;13.20;;;640.50;2432.00;;;;;;5032140;28;20025;-83
2021/08/17 07:02:51;;;;;;;15.88;11.38;;;640.90;2380.80;;;;;;5032710;28;20052;-80
2021/08/17 07:05:17;;;;;;;12.82;10.68;;;640.70;2406.40;;;;;;5035918;28;20059;-82
2021/08/17 07:07:42;;;;;;;13.77;11.20;;;640.80;2380.80;;;;;;5035670;28;20029;-82
2021/08/17 07:10:09;;;;;;;16.55;10.73;;;665.80;2380.80;;;;;;5036293;28;20482;-82
2021/08/17 07:12:35;;;;;;;15.35;9.18;;;665.70;2380.80;;;;;;5036134;28;20030;-82
2021/08/17 07:15:01;;;;;;;18.92;10.50;;;665.70;2380.80;;;;;;5035641;28;20022;-81
2021/08/17 07:17:27;;;;;;;14.32;10.40;;;;;;;;;;5036089;28;20029;-82
2021/08/17 07:19:53;;;;;;;17.10;10.60;;;;;;;;;;5036002;28;20104;-82
2021/08/17 07:22:19;;;;;;;19.27;11.00;;;;;;;;;;5035894;28;20079;-82
2021/08/17 07:24:45;;;;;;;14.02;10.15;;;691.20;2355.20;;;;;;5036251;28;20021;-84
2021/08/17 07:27:11;;;;;;;17.25;9.57;;;666.40;2355.20;;;;;;5035909;28;20027;-81
2021/08/17 07:29:37;;;;;;;14.75;10.57;;;666.50;2329.60;;;;;;5037340;28;20021;-81
2021/08/17 07:32:03;;;;;;;19.17;12.98;;;691.30;2329.60;;;;;;5037139;28;20068;-81
2021/08/17 07:34:29;;;;;;;14.70;10.45;;;;;;;;;;5035860;28;20443;-82
2021/08/17 07:36:55;;;;;;;13.85;9.68;;;;;;;;;;5037321;28;20029;-81
2021/08/17 07:39:21;;;;;;;16.58;10.18;;;692.00;2227.20;;;;;;5040672;28;20100;-83
2021/08/17 07:41:46;;;;;;;12.85;9.73;;;691.90;2252.80;;;;;;5042916;28;20526;-81
2021/08/17 07:44:13;;;;;;;14.13;9.15;;;;;;;;;;5037291;28;20036;-83
2021/08/17 07:46:38;;;;;;;13.98;8.88;;;717.00;2252.80;;;;;;5049218;28;20017;-81
2021/08/17 07:49:04;;;;;;;14.75;8.55;;;716.90;2227.20;;;;;;5059840;28;20045;-82
2021/08/17 07:51:30;;;;;;;16.33;8.85;;;;;;;;;;5059987;28;20021;-82
2021/08/17 07:53:56;;;;;;;16.80;10.10;;;;;;;;;;5059901;28;20025;-82
2021/08/17 07:56:23;;;;;;;14.95;9.32;;;;;;;;;;5059463;28;20022;-80
2021/08/17 07:58:49;;;;;;;13.15;8.38;;;;;;;;;;5059813;28;20049;-80
2021/08/17 08:01:15;;;;;;;14.73;8.98;;;;;;;;;;5059709;28;20029;-81
2021/08/17 08:03:41;;;;;;;11.55;8.20;;;;;;;;;;5041212;28;20097;-80
2021/08/17 08:06:08;;;;;;;10.93;8.27;;;;;;;;;;5047000;28;20390;-80
2021/08/17 08:08:34;;;;;;;15.73;10.52;;;;;;;;;;5047851;28;20052;-81
2021/08/17 08:11:02;;;;;;;28.90;9.60;;;;;;;;;;5047869;28;20022;-81
2021/08/17 08:13:28;;;;;;;12.57;9.60;;;;;;;;;;5048179;28;20029;-80
2021/08/17 08:15:54;;;;;;;20.42;9.45;;;;;;;;;;5045182;28;20095;-78
2021/08/17 08:18:20;;;;;;;14.60;9.20;;;;;;;;;;5044448;28;20052;-78
2021/08/17 08:20:46;;;;;;;17.83;10.63;;;;;;;;;;5036961;28;20072;-81
2021/08/17 08:23:12;;;;;;;16.27;11.50;;;;;;;;;;5034333;28;20013;-80
2021/08/17 08:25:40;;;;;;;14.40;11.25;;;;;;;;;;5033980;28;20055;-81
2021/08/17 08:28:06;;;;;;;11.10;9.80;;;;;;;;;;5034137;28;20017;-81
2021/08/17 08:30:32;;;;;;;18.42;14.35;;;;;;;;;;5034432;28;20459;-80
2021/08/17 08:32:59;;;;;;;14.80;11.80;;;;;;;;;;5034325;28;20108;-83
2021/08/17 08:35:25;;;;;;;17.27;11.40;;;;;;;;;;5034075;28;20025;-80
2021/08/17 08:37:51;;;;;;;16.10;11.02;;;;;;;;;;5033829;28;20117;-83
2021/08/17 08:40:17;;;;;;;12.65;8.95;;;;;;;;;;5034237;28;20040;-78
2021/08/17 08:42:46;;;;;;;13.63;10.13;;;;;;;;;;5034050;28;20414;-80
2021/08/17 08:45:12;;;;;;;14.20;10.02;;;;;;;;;;5033397;28;20025;-83
2021/08/17 08:47:40;;;;;;;14.30;10.70;;;;;;;;;;5033119;28;20179;-80
2021/08/17 08:50:06;;;;;;;19.40;12.25;;;;;;;;;;5033958;28;20078;-79
2021/08/17 08:52:32;;;;;;;20.50;11.55;;;;;;;;;;5032869;28;20017;-80
2021/08/17 08:55:02;;;;;;;18.52;13.80;;;794.30;1945.60;;;;;;5033406;28;20037;-81
2021/08/17 08:57:28;;;;;;;20.90;15.82;;;794.20;1920.00;;;;;;5033036;28;20455;-83
2021/08/17 08:59:54;;;;;;;17.90;14.23;;;794.40;1920.00;;;;;;5033291;28;20482;-79
2021/08/17 09:02:26;;;;;;;17.98;12.25;;;794.50;1920.00;;;;;;5033359;28;20021;-80
2021/08/17 09:04:53;;;;;;;;;;;794.50;1868.80;;;;;;5034213;28;20359;-81
2021/08/17 09:07:34;;;;;;;15.38;12.50;;;819.20;1868.80;;;;;;5033392;28;20258;-81
2021/08/17 09:10:08;;;;;;;16.92;11.55;;;819.30;1894.40;;;;;;5033483;28;20021;-82
2021/08/17 09:12:45;;;;;;;18.70;14.02;;;819.30;1868.80;;;;;;5034569;28;20047;-79
2021/08/17 09:15:17;;;;;;;17.42;12.68;;;819.60;1843.20;;;;;;5032758;28;20025;-79
2021/08/17 09:17:43;;;;;;;;;;;819.60;1817.60;;;;;;5029614;28;20044;-82
2021/08/17 09:20:14;;;;;;;15.20;12.60;;;819.70;1817.60;;;;;;5033002;28;19901;-85
2021/08/17 09:22:42;;;;;;;18.63;16.00;;;819.90;1792.00;;;;;;5034546;28;20459;-80
2021/08/17 09:25:08;;;;;;;19.52;14.25;;;820.10;1817.60;;;;;;5033278;28;20483;-82
2021/08/17 09:27:36;;;;;;;18.50;13.48;;;844.80;1817.60;;;;;;5032304;28;20017;-82
2021/08/17 09:30:01;;;;;;;18.67;13.15;;;844.90;1817.60;;;;;;5034528;28;20025;-83
2021/08/17 09:32:27;;;;;;;19.65;14.30;;;845.10;1766.40;;;;;;5033482;28;20358;-79
2021/08/17 09:35:00;;;;;;;17.95;14.20;;;845.10;1766.40;;;;;;5032792;28;20028;-81
2021/08/17 09:37:30;;;;;;;18.30;14.70;;;845.30;1740.80;;;;;;5033173;28;20029;-81
2021/08/17 09:39:58;;;;;;;17.47;14.13;;;845.40;1715.20;;;;;;5033607;28;20032;-82
2021/08/17 09:42:29;;;;;;;19.98;14.88;;;845.40;1664.00;;;;;;5032851;28;20265;-79
2021/08/17 09:45:18;;;;;;;15.95;13.55;;;845.50;1664.00;;;;;;5033240;28;20044;-81
2021/08/17 09:47:53;;;;;;;17.80;13.75;;;845.70;1715.20;;;;;;5032582;28;20046;-80
2021/08/17 09:50:30;;;;;;;17.88;14.43;;;870.50;1664.00;;;;;;5034895;28;20451;-79
2021/08/17 09:53:08;;;;;;;20.23;14.75;;;870.50;1638.40;;;;;;5032751;28;20480;-79
2021/08/17 09:55:51;;;;;;;15.45;13.65;;;870.70;1664.00;;;;;;5033482;28;20032;-79
2021/08/17 09:58:25;;;;;;;20.17;15.88;;;871.00;1638.40;;;;;;5032868;28;20494;-80
2021/08/17 10:00:56;;;;;;;21.13;17.42;;;871.10;1612.80;;;;;;5032059;28;20028;-79
2021/08/17 10:03:23;;;;;;;20.38;14.70;;;871.30;1587.20;;;;;;5023916;28;20410;-79
2021/08/17 10:05:49;;;;;;;20.42;16.85;;;896.30;1561.60;;;;;;5033419;28;20075;-82
2021/08/17 10:08:17;;;;;;;20.02;16.08;;;896.00;1561.60;;;;;;5034113;28;20033;-79
2021/08/17 10:10:45;;;;;;;21.30;16.92;;;896.20;2252.80;;;;;;5032376;28;20067;-81
2021/08/17 10:13:13;;;;;;;17.88;14.98;;;896.90;1510.40;;;;;;5048906;28;20022;-78
2021/08/17 10:15:40;;;;;;;16.88;14.02;;;921.60;1536.00;;;;;;5051969;28;20021;-78
2021/08/17 10:18:07;;;;;;;14.80;12.57;;;921.60;1510.40;;;;;;5052726;28;20037;-79
2021/08/17 10:20:36;;;;;;;21.08;14.95;;;921.60;1510.40;;;;;;5034768;28;20021;-79
2021/08/17 10:23:02;;;;;;;17.90;13.10;;;922.00;1484.80;;;;;;5031978;28;20027;-80
2021/08/17 10:25:46;;;;;;;19.20;14.35;;;922.00;1484.80;;;;;;5032305;28;20112;-81
2021/08/17 10:28:30;;;;;;;16.05;11.50;;;922.00;1536.00;;;;;;5033722;28;20014;-80
2021/08/17 10:30:57;;;;;;;15.18;11.90;;;922.10;1459.20;;;;;;5032031;28;20112;-82
2021/08/17 10:33:50;;;;;;;16.73;12.70;;;922.40;1484.80;;;;;;5033851;28;20029;-83
2021/08/17 10:36:35;;;;;;;12.82;11.50;;;922.50;1484.80;;;;;;5032129;28;20091;-82
2021/08/17 10:39:21;;;;;;;18.60;12.07;;;947.30;1459.20;;;;;;5035409;28;20068;-81
2021/08/17 10:41:49;;;;;;;15.50;12.10;;;947.40;1433.60;;;;;;5050428;28;20370;-81
2021/08/17 10:44:23;;;;;;;19.42;15.48;;;947.50;1408.00;;;;;;5035575;28;20099;-82
2021/08/17 10:46:52;;;;;;;19.60;14.15;;;947.80;1433.60;;;;;;5032957;28;20371;-81
2021/08/17 10:49:33;;;;;;;15.20;11.13;;;948.00;1408.00;;;;;;5016178;28;20041;-79
2021/08/17 10:52:10;;;;;;;17.45;12.85;;;947.40;1433.60;;;;;;5028744;28;20057;-81
2021/08/17 10:54:38;;;;;;;17.67;11.75;;;922.50;1433.60;;;;;;5034750;28;20021;-83
2021/08/17 10:57:14;;;;;;;16.45;12.60;;;922.30;1459.20;;;;;;5035698;28;20108;-83
2021/08/17 10:59:41;;;;;;;17.63;13.68;;;922.10;1459.20;;;;;;5037340;28;20021;-81
2021/08/17 11:02:10;;;;;;;15.98;12.18;;;947.20;1408.00;;;;;;5037202;28;20025;-80
2021/08/17 11:04:47;;;;;;;15.27;12.30;;;922.30;1433.60;;;;;;5037267;28;20044;-80
2021/08/17 11:07:24;;;;;;;17.35;12.30;;;922.50;1433.60;;;;;;5035777;28;20033;-82
2021/08/17 11:09:50;;;;;;;19.05;13.15;;;947.20;1408.00;;;;;;5037256;28;20477;-83
2021/08/17 11:12:18;;;;;;;18.67;15.13;;;947.30;1408.00;;;;;;5035371;28;20029;-81
2021/08/17 11:14:45;;;;;;;14.23;11.20;;;947.20;1408.00;;;;;;5035371;28;20429;-83
2021/08/17 11:17:13;;;;;;;22.67;12.88;;;947.70;1356.80;;;;;;5035940;28;20120;-80
2021/08/17 11:19:48;;;;;;;17.98;15.52;;;973.10;1356.80;;;;;;5035526;28;20021;-82
2021/08/17 11:22:20;;;;;;;15.05;11.32;;;973.10;1331.20;;;;;;5036739;28;20071;-79
2021/08/17 11:24:48;;;;;;;13.82;12.43;;;973.10;1305.60;;;;;;5035600;28;20025;-82
2021/08/17 11:27:36;;;;;;;15.23;11.63;;;973.10;1305.60;;;;;;5035716;28;20018;-82
2021/08/17 11:30:10;;;;;;;22.92;20.58;;;973.30;1331.20;;;;;;5035518;28;20025;-83
2021/08/17 11:32:40;;;;;;;14.25;12.77;;;973.40;1356.80;;;;;;5035175;28;20025;-82
2021/08/17 11:35:18;;;;;;;15.65;11.65;;;973.60;1331.20;;;;;;5035479;28;20045;-84
2021/08/17 11:37:59;;;;;;;16.45;11.93;;;973.70;1331.20;;;;;;5035155;28;20409;-85
2021/08/17 11:40:40;;;;;;;17.67;12.13;;;998.40;1382.40;;;;;;5035662;28;20021;-82
2021/08/17 11:43:06;;;;;;;;;;;;;;;;;;5035887;28;20025;-83
2021/08/17 11:45:39;;;;;;;20.65;12.00;;;;;;;;;;5035155;28;19901;-80
2021/08/17 11:48:05;;;;;;;18.17;12.85;;;;;;;;;;5034263;28;20418;-82
2021/08/17 11:50:31;;;;;;;17.90;13.25;;;998.70;1331.20;;;;;;5034397;28;20033;-82
2021/08/17 11:53:02;;;;;;;19.70;14.27;;;998.80;1305.60;;;;;;5034963;28;20027;-83
2021/08/17 11:55:31;;;;;;;20.08;13.85;;;998.80;1280.00;;;;;;5035710;28;20017;-80
2021/08/17 11:58:08;;;;;;;20.60;15.15;;;998.80;1280.00;;;;;;5034796;28;20017;-87
2021/08/17 12:00:35;;;;;;;21.42;15.70;;;999.00;1254.40;;;;;;5034649;28;20108;-80
2021/08/17 12:03:03;;;;;;;21.35;15.68;;;999.20;1254.40;;;;;;5034712;28;20021;-82
2021/08/17 12:05:34;;;;;;;23.00;16.95;;;999.20;1254.40;;;;;;5034681;28;20025;-82
2021/08/17 12:08:00;;;;;;;;;;;999.30;1228.80;;;;;;5035302;28;20029;-82
2021/08/17 12:10:34;;;;;;;25.15;16.45;;;999.20;1228.80;;;;;;5034731;28;19909;-83
2021/08/17 12:13:07;;;;;;;22.63;16.30;;;999.20;1228.80;;;;;;5034711;28;20087;-82
2021/08/17 12:15:45;;;;;;;24.17;17.70;;;999.20;1254.40;;;;;;5034576;28;20025;-83
2021/08/17 12:18:25;;;;;;;25.33;20.33;;;999.20;1228.80;;;;;;5036019;28;20140;-83
2021/08/17 12:21:04;;;;;;;21.17;16.17;;;999.30;1228.80;;;;;;5034035;28;20494;-82
2021/08/17 12:23:36;;;;;;;20.52;15.85;;;999.30;1228.80;;;;;;5034462;28;20036;-82
2021/08/17 12:26:29;;;;;;;22.85;16.67;;;1024.00;1228.80;;;;;;5034420;28;20021;-83
2021/08/17 12:28:56;;;;;;;24.33;17.60;;;999.30;1203.20;;;;;;5031169;28;20044;-82